Time;durP1;ratioP1;P1;durP2;ratioP2;P2;SDS_P1;SDS_P2;PMS_P1;PMS_P2;Temp;Humidity;BMP_temperature;BMP_pressure;BME280_temperature;BME280_humidity;BME280_pressure;Samples;Min_cycle;Max_cycle;Signal;HPM_P1;HPM_P2
2022/10/28 00:00:31;;;;;;;15.43;11.10;;;;;;;;;;5024393;28;20189;-73
2022/10/28 00:02:58;;;;;;;20.30;10.93;;;;;;;;;;5026849;28;20187;-74
2022/10/28 00:05:23;;;;;;;14.27;10.15;;;;;;;;;;5025348;28;20198;-73
2022/10/28 00:07:49;;;;;;;22.95;12.15;;;;;;;;;;5025221;28;20210;-73
2022/10/28 00:10:14;;;;;;;15.40;10.05;;;;;;;;;;5022350;28;20581;-73
2022/10/28 00:12:39;;;;;;;14.05;9.82;;;;;;;;;;5021446;28;20232;-74
2022/10/28 00:15:05;;;;;;;18.42;11.20;;;;;;;;;;5019321;28;20201;-73
2022/10/28 00:17:30;;;;;;;14.70;9.85;;;;;;;;;;5022377;28;20195;-73
2022/10/28 00:19:55;;;;;;;21.83;11.07;;;;;;;;;;5025385;28;20206;-73
2022/10/28 00:22:21;;;;;;;15.57;9.95;;;;;;;;;;5027728;28;20224;-73
2022/10/28 00:24:46;;;;;;;19.08;10.93;;;;;;;;;;5033204;28;20634;-72
2022/10/28 00:27:11;;;;;;;20.85;12.20;;;;;;;;;;5030348;28;20182;-73
2022/10/28 00:29:36;;;;;;;17.92;10.32;;;;;;;;;;5030852;28;20226;-74
2022/10/28 00:32:02;;;;;;;17.90;10.68;;;;;;;;;;5032295;28;20397;-73
2022/10/28 00:34:27;;;;;;;17.20;10.90;;;;;;;;;;5020116;28;20533;-73
2022/10/28 00:36:52;;;;;;;20.35;12.35;;;;;;;;;;5025948;28;20644;-73
2022/10/28 00:39:18;;;;;;;26.73;11.63;;;;;;;;;;5022736;28;20232;-73
2022/10/28 00:41:45;;;;;;;20.08;11.68;;;;;;;;;;5028349;28;20181;-73
2022/10/28 00:44:29;;;;;;;16.73;10.50;;;;;;;;;;5029926;28;20178;-73
2022/10/28 00:46:54;;;;;;;19.38;11.07;;;;;;;;;;5031647;28;20178;-73
2022/10/28 00:49:29;;;;;;;18.08;12.05;;;;;;;;;;5029438;28;20201;-73
2022/10/28 00:51:56;;;;;;;18.83;11.85;;;;;;;;;;5027664;28;20257;-72
2022/10/28 00:54:22;;;;;;;15.68;11.10;;;;;;;;;;5023605;28;20221;-74
2022/10/28 00:56:49;;;;;;;18.95;11.52;;;;;;;;;;5028320;28;20753;-73
2022/10/28 00:59:20;;;;;;;16.85;11.55;;;;;;;;;;5032383;28;20585;-74
2022/10/28 01:01:45;;;;;;;15.75;11.38;;;;;;;;;;5024907;28;20173;-74
2022/10/28 01:04:10;;;;;;;22.55;12.43;;;;;;;;;;5027078;28;20182;-73
2022/10/28 01:06:36;;;;;;;22.48;12.45;;;;;;;;;;5021117;28;20174;-73
2022/10/28 01:09:01;;;;;;;15.85;11.00;;;;;;;;;;5032888;28;20206;-72
2022/10/28 01:11:26;;;;;;;17.70;10.45;;;;;;;;;;5031438;28;20601;-73
2022/10/28 01:13:51;;;;;;;16.93;12.07;;;;;;;;;;5022442;28;20179;-74
2022/10/28 01:16:37;;;;;;;21.07;10.43;;;;;;;;;;5031079;28;20835;-73
2022/10/28 01:19:15;;;;;;;16.73;11.23;;;;;;;;;;5026106;28;20831;-73
2022/10/28 01:21:40;;;;;;;17.23;10.73;;;;;;;;;;5025128;28;20182;-73
2022/10/28 01:24:18;;;;;;;18.87;10.27;;;;;;;;;;5026907;28;20712;-73
2022/10/28 01:26:46;;;;;;;17.95;11.35;;;;;;;;;;5026052;28;21320;-73
2022/10/28 01:29:11;;;;;;;15.35;10.05;;;;;;;;;;5026322;28;20226;-74
2022/10/28 01:31:51;;;;;;;19.20;11.23;;;;;;;;;;5043215;28;20191;-74
2022/10/28 01:34:26;;;;;;;18.00;9.75;;;;;;;;;;5026302;28;20473;-74
2022/10/28 01:36:57;;;;;;;17.13;10.70;;;;;;;;;;5026635;28;20265;-72
2022/10/28 01:39:29;;;;;;;14.30;9.52;;;;;;;;;;5026211;28;20194;-72
2022/10/28 01:41:58;;;;;;;18.58;11.85;;;;;;;;;;5023201;28;20556;-74
2022/10/28 01:44:42;;;;;;;17.63;10.18;;;;;;;;;;5019879;28;20207;-73
2022/10/28 01:47:10;;;;;;;17.95;11.75;;;;;;;;;;5022476;28;20174;-73
2022/10/28 01:49:42;;;;;;;17.02;10.13;;;;;;;;;;5026523;28;20273;-73
2022/10/28 01:52:11;;;;;;;16.02;9.80;;;;;;;;;;5023206;28;20175;-74
2022/10/28 01:54:37;;;;;;;15.77;9.68;;;;;;;;;;5028545;28;20240;-72
2022/10/28 01:57:03;;;;;;;19.17;10.88;;;;;;;;;;5023685;28;20649;-74
2022/10/28 01:59:29;;;;;;;14.20;9.88;;;;;;;;;;5017774;28;20210;-72
2022/10/28 02:01:55;;;;;;;16.50;9.60;;;;;;;;;;5028387;28;20182;-73
2022/10/28 02:04:20;;;;;;;15.15;9.57;;;;;;;;;;5019005;28;20179;-72
2022/10/28 02:06:46;;;;;;;16.77;10.05;;;;;;;;;;5031506;28;20206;-71
2022/10/28 02:09:12;;;;;;;17.85;10.68;;;;;;;;;;5037236;28;20226;-74
2022/10/28 02:11:45;;;;;;;16.92;10.60;;;;;;;;;;5026042;28;20308;-73
2022/10/28 02:14:10;;;;;;;21.80;10.75;;;;;;;;;;5026147;28;20178;-73
2022/10/28 02:16:47;;;;;;;18.77;11.43;;;;;;;;;;5023118;28;20678;-73
2022/10/28 02:19:13;;;;;;;20.75;10.27;;;;;;;;;;5024997;28;20463;-73
2022/10/28 02:21:53;;;;;;;18.20;11.18;;;;;;;;;;5028051;28;21375;-74
2022/10/28 02:24:21;;;;;;;17.95;10.60;;;;;;;;;;5026728;28;20177;-74
2022/10/28 02:26:51;;;;;;;20.40;9.80;;;;;;;;;;5028627;28;20197;-73
2022/10/28 02:29:19;;;;;;;16.23;10.82;;;;;;;;;;5022411;28;20260;-73
2022/10/28 02:31:48;;;;;;;23.75;12.45;;;;;;;;;;5024850;28;20179;-73
2022/10/28 02:34:19;;;;;;;18.30;11.15;;;;;;;;;;5022070;28;20194;-73
2022/10/28 02:36:46;;;;;;;19.05;10.98;;;;;;;;;;5023530;28;20202;-72
2022/10/28 02:39:13;;;;;;;19.65;10.52;;;;;;;;;;5027923;28;20210;-72
2022/10/28 02:41:44;;;;;;;19.55;11.00;;;;;;;;;;5026970;28;20183;-73
2022/10/28 02:44:11;;;;;;;18.80;10.82;;;;;;;;;;5040523;28;20312;-74
2022/10/28 02:46:39;;;;;;;16.38;10.75;;;;;;;;;;5026972;28;20716;-73
2022/10/28 02:49:07;;;;;;;19.83;10.55;;;;;;;;;;5026899;28;20217;-72
2022/10/28 02:51:36;;;;;;;14.50;10.52;;;;;;;;;;5019035;28;20261;-73
2022/10/28 02:54:09;;;;;;;23.10;10.20;;;;;;;;;;5017019;28;20178;-73
2022/10/28 02:56:37;;;;;;;18.60;10.75;;;;;;;;;;5024431;28;20174;-73
2022/10/28 02:59:02;;;;;;;18.90;11.50;;;;;;;;;;5028229;28;20217;-73
2022/10/28 03:01:27;;;;;;;18.17;11.00;;;;;;;;;;5026993;28;20174;-73
2022/10/28 03:03:52;;;;;;;18.38;11.25;;;;;;;;;;5028958;28;20170;-74
2022/10/28 03:06:17;;;;;;;21.33;11.85;;;;;;;;;;5028237;28;20182;-74
2022/10/28 03:08:43;;;;;;;18.98;11.45;;;;;;;;;;5028718;28;20292;-74
2022/10/28 03:11:08;;;;;;;18.80;10.75;;;;;;;;;;5023507;28;20190;-74
2022/10/28 03:13:33;;;;;;;18.42;10.82;;;;;;;;;;5029377;28;20178;-74
2022/10/28 03:15:58;;;;;;;17.30;10.45;;;;;;;;;;5026647;28;20174;-73
2022/10/28 03:18:23;;;;;;;15.88;9.82;;;;;;;;;;5023384;28;20953;-73
2022/10/28 03:20:49;;;;;;;20.75;11.80;;;;;;;;;;5035566;28;20182;-73
2022/10/28 03:23:14;;;;;;;18.63;10.60;;;;;;;;;;5024406;28;20175;-74
2022/10/28 03:25:39;;;;;;;20.45;10.25;;;;;;;;;;5014862;28;20190;-73
2022/10/28 03:28:04;;;;;;;19.88;9.88;;;;;;;;;;5019146;28;20200;-73
2022/10/28 03:30:29;;;;;;;17.95;10.10;;;;;;;;;;5030134;28;20194;-73
2022/10/28 03:32:55;;;;;;;15.73;9.40;;;;;;;;;;5040984;28;20612;-74
2022/10/28 03:35:20;;;;;;;15.65;10.60;;;;;;;;;;5025551;28;20174;-74
2022/10/28 03:37:45;;;;;;;22.17;10.93;;;;;;;;;;5024554;28;20666;-73
2022/10/28 03:40:11;;;;;;;17.38;9.45;;;;;;;;;;5021933;28;20228;-73
2022/10/28 03:42:36;;;;;;;19.13;9.88;;;;;;;;;;5027459;28;20182;-73
2022/10/28 03:45:01;;;;;;;21.35;11.75;;;;;;;;;;5022873;28;20552;-74
2022/10/28 03:47:26;;;;;;;18.30;9.95;;;;;;;;;;5023174;28;20225;-73
2022/10/28 03:49:51;;;;;;;17.30;10.00;;;;;;;;;;5029765;28;20238;-73
2022/10/28 03:52:16;;;;;;;20.90;10.43;;;;;;;;;;5029492;28;20212;-74
2022/10/28 03:54:42;;;;;;;20.30;11.80;;;;;;;;;;5026483;28;20240;-73
2022/10/28 03:57:07;;;;;;;13.35;9.68;;;;;;;;;;5030742;28;20305;-74
2022/10/28 03:59:32;;;;;;;17.00;9.93;;;;;;;;;;5028531;28;20576;-73
2022/10/28 04:01:57;;;;;;;16.42;10.05;;;;;;;;;;5029990;28;20183;-73
2022/10/28 04:04:22;;;;;;;19.75;10.60;;;;;;;;;;5031482;28;20177;-73
2022/10/28 04:06:48;;;;;;;22.65;11.02;;;;;;;;;;5029574;28;20175;-72
2022/10/28 04:09:13;;;;;;;18.63;10.43;;;;;;;;;;5045620;28;20657;-73
2022/10/28 04:11:38;;;;;;;20.02;10.02;;;;;;;;;;5022896;28;20179;-73
2022/10/28 04:14:03;;;;;;;24.75;10.95;;;;;;;;;;5025350;28;20311;-74
2022/10/28 04:16:28;;;;;;;16.40;9.70;;;;;;;;;;5022802;28;20253;-73
2022/10/28 04:18:53;;;;;;;14.13;9.45;;;;;;;;;;5027031;28;20298;-74
2022/10/28 04:21:19;;;;;;;14.00;9.93;;;;;;;;;;5026847;28;20171;-72
2022/10/28 04:23:44;;;;;;;16.33;9.30;;;;;;;;;;5023489;28;20624;-73
2022/10/28 04:26:09;;;;;;;17.27;9.05;;;;;;;;;;5022414;28;20187;-73
2022/10/28 04:28:34;;;;;;;25.23;10.48;;;;;;;;;;5022444;28;20313;-73
2022/10/28 04:31:01;;;;;;;20.35;10.05;;;;;;;;;;5025674;28;20637;-73
2022/10/28 04:33:26;;;;;;;16.83;10.40;;;;;;;;;;5030001;28;20712;-74
2022/10/28 04:35:51;;;;;;;16.95;9.43;;;;;;;;;;5028179;28;20175;-73
2022/10/28 04:38:17;;;;;;;13.65;8.90;;;;;;;;;;5028570;28;20202;-73
2022/10/28 04:40:42;;;;;;;17.30;10.65;;;;;;;;;;5022057;28;20565;-73
2022/10/28 04:43:07;;;;;;;19.10;9.70;;;;;;;;;;5023418;28;20182;-74
2022/10/28 04:45:32;;;;;;;13.48;8.93;;;;;;;;;;5022076;28;20228;-72
2022/10/28 04:47:58;;;;;;;14.70;8.55;;;;;;;;;;5033428;28;20400;-74
2022/10/28 04:50:23;;;;;;;17.88;10.93;;;;;;;;;;5032668;28;20571;-73
2022/10/28 04:52:48;;;;;;;17.48;8.70;;;;;;;;;;5019582;28;20170;-74
2022/10/28 04:55:14;;;;;;;16.33;9.18;;;;;;;;;;5032789;28;20182;-73
2022/10/28 04:57:39;;;;;;;22.40;9.57;;;;;;;;;;5029213;28;20256;-73
2022/10/28 05:00:04;;;;;;;15.75;8.75;;;;;;;;;;5033004;28;20194;-74
2022/10/28 05:02:29;;;;;;;13.63;8.52;;;;;;;;;;5029363;28;20514;-73
2022/10/28 05:04:59;;;;;;;14.35;8.10;;;;;;;;;;5020123;28;20171;-72
2022/10/28 05:07:24;;;;;;;13.20;7.93;;;;;;;;;;5039546;28;20186;-72
2022/10/28 05:09:49;;;;;;;15.98;8.93;;;;;;;;;;5026439;28;20193;-73
2022/10/28 05:12:14;;;;;;;15.02;8.48;;;;;;;;;;5027850;28;20182;-73
2022/10/28 05:14:39;;;;;;;14.95;8.10;;;;;;;;;;5030707;28;20166;-72
2022/10/28 05:17:04;;;;;;;16.38;7.57;;;;;;;;;;5031912;28;20651;-74
2022/10/28 05:19:30;;;;;;;15.23;7.65;;;;;;;;;;5023709;28;20218;-72
2022/10/28 05:21:55;;;;;;;11.77;7.75;;;;;;;;;;5026053;28;20170;-74
2022/10/28 05:24:20;;;;;;;15.02;8.32;;;;;;;;;;5029504;28;20174;-72
2022/10/28 05:26:45;;;;;;;11.70;7.20;;;;;;;;;;5040096;28;20225;-72
2022/10/28 05:29:10;;;;;;;16.70;7.50;;;;;;;;;;5037130;28;20241;-73
2022/10/28 05:31:36;;;;;;;15.27;8.60;;;;;;;;;;5027495;28;20182;-74
2022/10/28 05:34:01;;;;;;;13.18;7.68;;;;;;;;;;5023856;28;20175;-74
2022/10/28 05:36:26;;;;;;;11.65;6.78;;;;;;;;;;5027230;28;20181;-73
2022/10/28 05:38:51;;;;;;;13.32;7.20;;;;;;;;;;5020612;28;20198;-72
2022/10/28 05:41:16;;;;;;;17.90;8.30;;;;;;;;;;5026818;28;20274;-74
2022/10/28 05:43:42;;;;;;;12.30;7.15;;;;;;;;;;5024770;28;20186;-74
2022/10/28 05:46:07;;;;;;;19.45;7.85;;;;;;;;;;5024317;28;20170;-73
2022/10/28 05:48:33;;;;;;;17.63;7.97;;;;;;;;;;5029500;28;20874;-74
2022/10/28 05:50:58;;;;;;;13.75;7.35;;;;;;;;;;5032067;28;20658;-73
2022/10/28 05:53:23;;;;;;;13.70;7.53;;;;;;;;;;5039254;28;20233;-73
2022/10/28 05:55:48;;;;;;;17.17;8.40;;;;;;;;;;5031542;28;20182;-73
2022/10/28 05:58:14;;;;;;;15.10;7.70;;;;;;;;;;5031782;28;20198;-73
2022/10/28 06:00:39;;;;;;;15.95;7.00;;;;;;;;;;5017690;28;20185;-72
2022/10/28 06:03:08;;;;;;;14.27;7.75;;;;;;;;;;5027748;28;20265;-73
2022/10/28 06:05:34;;;;;;;13.05;7.00;;;;;;;;;;5031712;28;20587;-73
2022/10/28 06:07:59;;;;;;;10.63;7.05;;;;;;;;;;5031228;28;20213;-73
2022/10/28 06:10:24;;;;;;;14.52;7.05;;;;;;;;;;5023147;28;20252;-74
2022/10/28 06:12:49;;;;;;;16.58;7.10;;;;;;;;;;5029056;28;20227;-74
2022/10/28 06:15:14;;;;;;;13.98;8.20;;;;;;;;;;5028934;28;20189;-74
2022/10/28 06:17:40;;;;;;;13.52;7.00;;;;;;;;;;5020460;28;20345;-74
2022/10/28 06:20:05;;;;;;;13.35;6.97;;;;;;;;;;5025129;28;20198;-73
2022/10/28 06:22:30;;;;;;;15.40;6.95;;;;;;;;;;5023822;28;20254;-73
2022/10/28 06:24:56;;;;;;;14.98;7.53;;;;;;;;;;5018742;28;20178;-73
2022/10/28 06:27:21;;;;;;;12.13;6.63;;;;;;;;;;5026589;28;20186;-74
2022/10/28 06:29:46;;;;;;;11.43;7.28;;;;;;;;;;5042085;28;20235;-74
2022/10/28 06:32:11;;;;;;;14.27;7.88;;;;;;;;;;5028849;28;20654;-74
2022/10/28 06:34:38;;;;;;;14.70;6.93;;;;;;;;;;5025516;28;20192;-73
2022/10/28 06:37:03;;;;;;;14.93;6.97;;;;;;;;;;5029305;28;20232;-73
2022/10/28 06:39:28;;;;;;;16.92;8.02;;;;;;;;;;5021614;28;20569;-74
2022/10/28 06:41:53;;;;;;;14.85;7.25;;;;;;;;;;5026112;28;20179;-74
2022/10/28 06:44:19;;;;;;;16.05;6.72;;;;;;;;;;5014338;28;20215;-74
2022/10/28 06:46:44;;;;;;;11.70;6.63;;;;;;;;;;5026274;28;20182;-73
2022/10/28 06:49:09;;;;;;;15.43;6.70;;;;;;;;;;5027551;28;20202;-74
2022/10/28 06:51:34;;;;;;;15.93;7.35;;;;;;;;;;5026897;28;20240;-74
2022/10/28 06:53:59;;;;;;;13.43;7.50;;;;;;;;;;5029998;28;20183;-74
2022/10/28 06:56:25;;;;;;;13.32;7.22;;;;;;;;;;5030218;28;20594;-73
2022/10/28 06:58:53;;;;;;;11.85;7.00;;;;;;;;;;5023865;28;20212;-74
2022/10/28 07:01:19;;;;;;;13.70;6.88;;;;;;;;;;5028415;28;20183;-73
2022/10/28 07:03:45;;;;;;;9.55;6.88;;;;;;;;;;5045661;28;20182;-72
2022/10/28 07:06:10;;;;;;;14.00;8.15;;;;;;;;;;5024961;28;20640;-74
2022/10/28 07:08:35;;;;;;;15.73;7.82;;;;;;;;;;5012967;28;20213;-74
2022/10/28 07:11:01;;;;;;;15.70;7.95;;;;;;;;;;5024559;28;20186;-74
2022/10/28 07:13:26;;;;;;;11.38;7.75;;;;;;;;;;5025928;28;20663;-74
2022/10/28 07:15:52;;;;;;;19.23;8.07;;;;;;;;;;5025990;28;20174;-75
2022/10/28 07:18:17;;;;;;;18.83;9.23;;;;;;;;;;5028117;28;20676;-74
2022/10/28 07:20:42;;;;;;;20.70;8.48;;;;;;;;;;5025385;28;20174;-74
2022/10/28 07:23:08;;;;;;;17.23;7.70;;;;;;;;;;5028946;28;20178;-73
2022/10/28 07:25:33;;;;;;;17.33;8.88;;;;;;;;;;5027109;28;20574;-75
2022/10/28 07:27:59;;;;;;;14.75;8.68;;;;;;;;;;5030080;28;20668;-75
2022/10/28 07:30:24;;;;;;;14.77;8.27;;;;;;;;;;5030154;28;20217;-74
2022/10/28 07:32:49;;;;;;;18.33;8.95;;;;;;;;;;5030589;28;20264;-75
2022/10/28 07:35:15;;;;;;;17.70;8.63;;;;;;;;;;5025164;28;20186;-74
2022/10/28 07:37:40;;;;;;;14.32;7.97;;;;;;;;;;5025154;28;20206;-73
2022/10/28 07:40:06;;;;;;;12.15;7.40;;;;;;;;;;5023527;28;20201;-73
2022/10/28 07:42:32;;;;;;;17.85;8.65;;;;;;;;;;5026308;28;20182;-75
2022/10/28 07:44:57;;;;;;;14.38;8.25;;;;;;;;;;5033047;28;20181;-75
2022/10/28 07:47:22;;;;;;;12.80;7.90;;;;;;;;;;5022839;28;20551;-74
2022/10/28 07:49:47;;;;;;;16.85;7.47;;;;;;;;;;5024633;28;20206;-74
2022/10/28 07:52:13;;;;;;;12.52;6.88;;;;;;;;;;5032572;28;20201;-74
2022/10/28 07:54:38;;;;;;;10.00;6.40;;;;;;;;;;5025451;28;20541;-74
2022/10/28 07:57:03;;;;;;;15.02;7.07;;;;;;;;;;5034637;28;20178;-74
2022/10/28 07:59:28;;;;;;;16.98;6.28;;;;;;;;;;5029239;28;20202;-74
2022/10/28 08:01:54;;;;;;;10.90;6.18;;;;;;;;;;5033638;28;20166;-74
2022/10/28 08:04:19;;;;;;;11.50;6.60;;;;;;;;;;5032660;28;20174;-74
2022/10/28 08:06:44;;;;;;;13.35;7.03;;;;;;;;;;5030956;28;20229;-74
2022/10/28 08:09:09;;;;;;;11.80;5.45;;;;;;;;;;5031021;28;20206;-74
2022/10/28 08:11:34;;;;;;;9.52;6.03;;;;;;;;;;5024582;28;20240;-74
2022/10/28 08:14:00;;;;;;;12.40;6.25;;;;;;;;;;5028766;28;20186;-74
2022/10/28 08:16:27;;;;;;;9.10;5.57;;;;;;;;;;5026319;28;20197;-74
2022/10/28 08:18:53;;;;;;;8.68;5.85;;;;;;;;;;5022591;28;20203;-74
2022/10/28 08:21:18;;;;;;;14.77;6.50;;;;;;;;;;5033070;28;20193;-74
2022/10/28 08:23:45;;;;;;;9.93;4.80;;;;;;;;;;5024041;28;20202;-74
2022/10/28 08:26:11;;;;;;;9.23;5.63;;;;;;;;;;5030897;28;20178;-74
2022/10/28 08:28:36;;;;;;;13.88;6.25;;;;;;;;;;5029857;28;20260;-72
2022/10/28 08:31:02;;;;;;;9.50;5.25;;;;;;;;;;5024443;28;20182;-73
2022/10/28 08:33:29;;;;;;;13.75;5.55;;;;;;;;;;5031703;28;20248;-72
2022/10/28 08:35:54;;;;;;;11.95;5.03;;;;;;;;;;5031758;28;20659;-72
2022/10/28 08:38:20;;;;;;;8.93;4.53;;;;;;;;;;5030575;28;20208;-73
2022/10/28 08:41:04;;;;;;;11.60;5.55;;;;;;;;;;5031058;28;20415;-72
2022/10/28 08:43:32;;;;;;;10.52;4.82;;;;;;;;;;5028318;28;20198;-72
2022/10/28 08:45:58;;;;;;;10.57;5.28;;;;;;;;;;5024568;28;20171;-72
2022/10/28 08:48:33;;;;;;;11.70;6.53;;;;;;;;;;5025186;28;20643;-72
2022/10/28 08:51:11;;;;;;;10.55;5.03;;;;;;;;;;5024819;28;20419;-72
2022/10/28 08:53:42;;;;;;;10.77;5.20;;;;;;;;;;5026777;28;20174;-72
2022/10/28 08:56:26;;;;;;;14.00;5.45;;;;;;;;;;5044161;28;20194;-72
2022/10/28 08:58:53;;;;;;;9.82;4.35;;;;;;;;;;5043627;28;20690;-72
2022/10/28 09:01:25;;;;;;;11.88;4.85;;;;;;;;;;5031481;28;20182;-72
2022/10/28 09:03:52;;;;;;;10.63;4.85;;;;;;;;;;5023883;28;20182;-72
2022/10/28 09:06:17;;;;;;;9.70;4.40;;;;;;;;;;5023618;28;20187;-72
2022/10/28 09:08:44;;;;;;;16.95;4.93;;;;;;;;;;5023837;28;20199;-72
2022/10/28 09:11:09;;;;;;;11.60;5.13;;;;;;;;;;5028271;28;20189;-72
2022/10/28 09:13:40;;;;;;;8.57;5.70;;;;;;;;;;5028429;28;20274;-72
2022/10/28 09:16:24;;;;;;;11.25;4.93;;;;;;;;;;5022443;28;20784;-72
2022/10/28 09:18:51;;;;;;;8.07;4.55;;;;;;;;;;5032859;28;20206;-72
2022/10/28 09:21:23;;;;;;;7.32;4.25;;;;;;;;;;5029247;28;20544;-72
2022/10/28 09:23:53;;;;;;;11.73;4.90;;;;;;;;;;5028412;28;20189;-72
2022/10/28 09:26:37;;;;;;;10.82;4.53;;;;;;;;;;5027037;28;20189;-72
2022/10/28 09:29:17;;;;;;;14.73;5.68;;;;;;;;;;5024941;28;20206;-72
2022/10/28 09:31:48;;;;;;;10.20;4.63;;;;;;;;;;5026303;28;20194;-71
2022/10/28 09:34:18;;;;;;;9.48;5.22;;;;;;;;;;5027438;28;20229;-71
2022/10/28 09:36:46;;;;;;;8.05;5.28;;;;;;;;;;5030708;28;20557;-71
2022/10/28 09:39:38;;;;;;;9.95;5.65;;;;;;;;;;5025939;28;20221;-71
2022/10/28 09:42:03;;;;;;;10.48;4.43;;;;;;;;;;4992203;28;20668;-71
2022/10/28 09:44:38;;;;;;;10.25;5.80;;;;;;;;;;5033396;28;20184;-72
2022/10/28 09:47:11;;;;;;;16.25;6.10;;;;;;;;;;5030716;28;20177;-72
2022/10/28 09:49:37;;;;;;;15.60;5.88;;;;;;;;;;5025819;28;20194;-72
2022/10/28 09:52:21;;;;;;;14.85;5.90;;;;;;;;;;5024353;28;20651;-72
2022/10/28 09:54:52;;;;;;;11.45;5.20;;;;;;;;;;5027737;28;20178;-71
2022/10/28 09:57:18;;;;;;;10.30;4.53;;;;;;;;;;5040091;28;20565;-71
2022/10/28 09:59:43;;;;;;;9.10;4.35;;;;;;;;;;5026147;28;20198;-71
2022/10/28 10:02:39;;;;;;;13.23;4.43;;;;;;;;;;5030047;28;20555;-71
2022/10/28 10:05:15;;;;;;;8.75;4.97;;;;;;;;;;5006708;28;20200;-72
2022/10/28 10:07:43;;;;;;;10.93;4.78;;;;;;;;;;5027994;28;20185;-72
2022/10/28 10:10:15;;;;;;;10.68;4.85;;;;;;;;;;5028058;28;20237;-72
2022/10/28 10:12:41;;;;;;;19.35;6.07;;;;;;;;;;5028909;28;20269;-71
2022/10/28 10:15:10;;;;;;;8.38;3.88;;;;;;;;;;5027372;28;20269;-72
2022/10/28 10:17:40;;;;;;;6.93;3.45;;;;;;;;;;5027331;28;20197;-72
2022/10/28 10:20:08;;;;;;;9.57;4.43;;;;;;;;;;5029553;28;20221;-72
2022/10/28 10:22:35;;;;;;;11.70;4.40;;;;;;;;;;5026752;28;20181;-72
2022/10/28 10:25:00;;;;;;;8.82;4.05;;;;;;;;;;5028074;28;20181;-71
2022/10/28 10:27:27;;;;;;;10.70;4.35;;;;;;;;;;5026352;28;20187;-71
2022/10/28 10:29:53;;;;;;;9.50;4.07;;;;;;;;;;5028039;28;20211;-72
2022/10/28 10:32:26;;;;;;;9.50;4.15;;;;;;;;;;5029795;28;20175;-72
2022/10/28 10:34:51;;;;;;;9.32;4.47;;;;;;;;;;5022301;28;20676;-72
2022/10/28 10:37:20;;;;;;;12.30;3.60;;;;;;;;;;5025352;28;20182;-72
2022/10/28 10:39:57;;;;;;;8.52;4.03;;;;;;;;;;5028104;28;20546;-72
2022/10/28 10:42:24;;;;;;;9.40;4.45;;;;;;;;;;5027560;28;20170;-72
2022/10/28 10:44:57;;;;;;;9.80;3.90;;;;;;;;;;5023371;28;20663;-72
2022/10/28 10:47:22;;;;;;;15.23;5.13;;;;;;;;;;5028565;28;20592;-71
2022/10/28 10:49:48;;;;;;;8.43;3.83;;;;;;;;;;5030094;28;20194;-72
2022/10/28 10:52:22;;;;;;;14.82;4.60;;;;;;;;;;5029454;28;20173;-72
2022/10/28 10:54:56;;;;;;;9.40;3.75;;;;;;;;;;5026752;28;20178;-72
2022/10/28 10:57:21;;;;;;;10.45;4.68;;;;;;;;;;5021716;28;20704;-72
2022/10/28 10:59:48;;;;;;;9.52;3.80;;;;;;;;;;5025396;28;20293;-72
2022/10/28 11:02:19;;;;;;;10.02;4.30;;;;;;;;;;5027376;28;20186;-72
2022/10/28 11:04:49;;;;;;;10.90;4.22;;;;;;;;;;5020530;28;20198;-72
2022/10/28 11:07:14;;;;;;;11.48;3.90;;;;;;;;;;5026686;28;20181;-72
2022/10/28 11:09:41;;;;;;;11.80;4.13;;;;;;;;;;5024159;28;20206;-72
2022/10/28 11:12:13;;;;;;;8.80;3.95;;;;;;;;;;5027019;28;20192;-72
2022/10/28 11:14:38;;;;;;;11.32;4.03;;;;;;;;;;5027424;28;20328;-72
2022/10/28 11:17:20;;;;;;;7.65;4.05;;;;;;;;;;5026848;28;20257;-71
2022/10/28 11:19:45;;;;;;;12.32;3.75;;;;;;;;;;5028842;28;20207;-72
2022/10/28 11:22:20;;;;;;;11.20;4.30;;;;;;;;;;5027566;28;20205;-71
2022/10/28 11:25:03;;;;;;;11.93;4.68;;;;;;;;;;5028753;28;20316;-72
2022/10/28 11:27:47;;;;;;;14.93;4.15;;;;;;;;;;5028508;28;20270;-74
2022/10/28 11:30:14;;;;;;;7.53;4.75;;;;;;;;;;5028703;28;20206;-72
2022/10/28 11:32:46;;;;;;;9.88;3.95;;;;;;;;;;5043220;28;20178;-72
2022/10/28 11:35:15;;;;;;;10.05;4.28;;;;;;;;;;5028291;28;20230;-72
2022/10/28 11:37:40;;;;;;;10.18;4.25;;;;;;;;;;5024997;28;20212;-72
2022/10/28 11:40:26;;;;;;;14.27;3.80;;;;;;;;;;5026679;28;20197;-72
2022/10/28 11:43:07;;;;;;;10.52;4.18;;;;;;;;;;5022617;28;20571;-72
2022/10/28 11:45:49;;;;;;;11.48;4.20;;;;;;;;;;5025483;28;20175;-71
2022/10/28 11:48:24;;;;;;;14.48;4.45;;;;;;;;;;5044933;28;20668;-71
2022/10/28 11:50:49;;;;;;;8.52;4.22;;;;;;;;;;5018265;28;20197;-71
2022/10/28 11:53:23;;;;;;;10.93;4.13;;;;;;;;;;5021966;28;20190;-72
2022/10/28 11:55:48;;;;;;;13.63;4.72;;;;;;;;;;5018849;28;20418;-72
2022/10/28 11:58:19;;;;;;;9.67;4.20;;;;;;;;;;5018718;28;20202;-72
2022/10/28 12:00:57;;;;;;;9.57;3.67;;;;;;;;;;5039419;28;20422;-71
2022/10/28 12:03:31;;;;;;;9.82;4.00;;;;;;;;;;5026749;28;20181;-72
2022/10/28 12:06:15;;;;;;;10.48;3.67;;;;;;;;;;5019828;28;20213;-72
2022/10/28 12:08:43;;;;;;;6.07;3.78;;;;;;;;;;5027278;28;20218;-71
2022/10/28 12:11:27;;;;;;;8.15;4.43;;;;;;;;;;5028753;28;20221;-71
2022/10/28 12:14:01;;;;;;;10.63;4.45;;;;;;;;;;5031328;28;20178;-71
2022/10/28 12:16:39;;;;;;;10.90;3.70;;;;;;;;;;5025041;28;20231;-72
2022/10/28 12:19:11;;;;;;;7.78;3.42;;;;;;;;;;5043347;28;20210;-72
2022/10/28 12:21:38;;;;;;;7.60;3.42;;;;;;;;;;5030447;28;20179;-71
2022/10/28 12:24:05;;;;;;;10.95;4.15;;;;;;;;;;5028930;28;20179;-72
2022/10/28 12:26:40;;;;;;;11.98;3.85;;;;;;;;;;5032380;28;20166;-71
2022/10/28 12:29:15;;;;;;;9.07;3.97;;;;;;;;;;5029527;28;20304;-73
2022/10/28 12:31:46;;;;;;;11.85;4.55;;;;;;;;;;5021441;28;20195;-71
2022/10/28 12:34:15;;;;;;;11.90;4.35;;;;;;;;;;5027558;28;20183;-71
2022/10/28 12:36:52;;;;;;;12.75;4.43;;;;;;;;;;5031202;28;20627;-71
2022/10/28 12:39:23;;;;;;;8.65;3.92;;;;;;;;;;5026384;28;20596;-71
2022/10/28 12:41:55;;;;;;;15.02;4.82;;;;;;;;;;5031059;28;20176;-71
2022/10/28 12:44:22;;;;;;;11.23;4.40;;;;;;;;;;5030095;28;20216;-72
2022/10/28 12:46:56;;;;;;;10.80;3.72;;;;;;;;;;5028464;28;20174;-72
2022/10/28 12:49:27;;;;;;;9.32;4.53;;;;;;;;;;5027811;28;20217;-71
2022/10/28 12:51:53;;;;;;;12.50;4.57;;;;;;;;;;5022403;28;20257;-71
2022/10/28 12:54:29;;;;;;;9.20;4.97;;;;;;;;;;5029941;28;20600;-71
2022/10/28 12:57:09;;;;;;;9.40;3.60;;;;;;;;;;5030423;28;20174;-71
2022/10/28 12:59:37;;;;;;;14.73;4.03;;;;;;;;;;5023578;28;20260;-71
2022/10/28 13:02:04;;;;;;;11.27;3.50;;;;;;;;;;5028141;28;20200;-71
2022/10/28 13:04:29;;;;;;;12.20;3.63;;;;;;;;;;5026740;28;20174;-71
2022/10/28 13:07:00;;;;;;;7.53;3.58;;;;;;;;;;5028983;28;20846;-71
2022/10/28 13:09:45;;;;;;;17.10;4.63;;;;;;;;;;5019438;28;20198;-71
2022/10/28 13:12:13;;;;;;;11.00;3.45;;;;;;;;;;5027585;28;20182;-71
2022/10/28 13:14:44;;;;;;;8.38;3.80;;;;;;;;;;5031370;28;20178;-71
2022/10/28 13:17:28;;;;;;;9.32;3.00;;;;;;;;;;5043680;28;20640;-71
2022/10/28 13:19:53;;;;;;;10.73;3.67;;;;;;;;;;5031245;28;20281;-71
2022/10/28 13:22:37;;;;;;;10.70;5.10;;;;;;;;;;5029503;28;20269;-71
2022/10/28 13:25:21;;;;;;;9.98;4.20;;;;;;;;;;5021041;28;20950;-71
2022/10/28 13:27:47;;;;;;;9.80;3.70;;;;;;;;;;5031467;28;20260;-71
2022/10/28 13:30:15;;;;;;;8.98;3.67;;;;;;;;;;5027482;28;20694;-71
2022/10/28 13:32:40;;;;;;;11.93;3.58;;;;;;;;;;5031213;28;20214;-71
2022/10/28 13:35:12;;;;;;;10.98;3.80;;;;;;;;;;5045811;28;20232;-71
2022/10/28 13:37:38;;;;;;;9.23;3.63;;;;;;;;;;5029148;28;20569;-71
2022/10/28 13:40:04;;;;;;;10.25;4.28;;;;;;;;;;5029028;28;20186;-71
2022/10/28 13:42:30;;;;;;;9.88;4.18;;;;;;;;;;5028993;28;20181;-71
2022/10/28 13:45:03;;;;;;;11.77;3.92;;;;;;;;;;5024740;28;20194;-71
2022/10/28 13:47:28;;;;;;;7.10;3.58;;;;;;;;;;5037738;28;20175;-71
2022/10/28 13:50:09;;;;;;;9.32;3.72;;;;;;;;;;5029567;28;20194;-71
2022/10/28 13:52:38;;;;;;;9.60;4.15;;;;;;;;;;5021470;28;20182;-71
2022/10/28 13:55:12;;;;;;;18.45;4.80;;;;;;;;;;5027639;28;20224;-71
2022/10/28 13:57:38;;;;;;;6.43;3.25;;;;;;;;;;5026410;28;20261;-71
2022/10/28 14:00:06;;;;;;;10.55;3.53;;;;;;;;;;5022532;28;20293;-71
2022/10/28 14:02:45;;;;;;;9.13;4.05;;;;;;;;;;5026930;28;20265;-71
2022/10/28 14:05:12;;;;;;;11.32;4.05;;;;;;;;;;5026419;28;20673;-71
2022/10/28 14:07:49;;;;;;;9.15;3.85;;;;;;;;;;5028879;28;20194;-71
2022/10/28 14:10:17;;;;;;;9.10;4.00;;;;;;;;;;5026795;28;20216;-71
2022/10/28 14:12:44;;;;;;;10.40;3.95;;;;;;;;;;5027534;28;20173;-71
2022/10/28 14:15:13;;;;;;;9.80;4.18;;;;;;;;;;5027579;28;20308;-71
2022/10/28 14:17:39;;;;;;;8.55;4.30;;;;;;;;;;5029851;28;20178;-71
2022/10/28 14:20:07;;;;;;;7.88;3.15;;;;;;;;;;5028654;28;20199;-71
2022/10/28 14:22:34;;;;;;;10.23;4.38;;;;;;;;;;5025094;28;20189;-71
2022/10/28 14:24:59;;;;;;;12.10;3.80;;;;;;;;;;5022404;28;20174;-71
2022/10/28 14:27:29;;;;;;;7.72;3.50;;;;;;;;;;5022821;28;20232;-71
2022/10/28 14:29:54;;;;;;;11.10;3.47;;;;;;;;;;5028019;28;20210;-71
2022/10/28 14:32:31;;;;;;;15.40;5.13;;;;;;;;;;5023131;28;20637;-71
2022/10/28 14:35:09;;;;;;;10.13;3.33;;;;;;;;;;5028512;28;20434;-71